sensor_id;sensor_type;location;lat;lon;timestamp;P1;durP1;ratioP1;P2;durP2;ratioP2
19836;SDS011;10079;55.740;37.662;2023-04-22T00:02:25;7.33;;;3.93;;
19836;SDS011;10079;55.740;37.662;2023-04-22T00:05:17;7.37;;;4.13;;
19836;SDS011;10079;55.740;37.662;2023-04-22T00:08:10;7.93;;;4.00;;
19836;SDS011;10079;55.740;37.662;2023-04-22T00:10:54;8.63;;;4.37;;
19836;SDS011;10079;55.740;37.662;2023-04-22T00:13:47;5.43;;;3.77;;
19836;SDS011;10079;55.740;37.662;2023-04-22T00:16:31;7.90;;;4.43;;
19836;SDS011;10079;55.740;37.662;2023-04-22T00:19:15;6.10;;;4.00;;
19836;SDS011;10079;55.740;37.662;2023-04-22T00:21:56;9.13;;;4.27;;
19836;SDS011;10079;55.740;37.662;2023-04-22T00:24:37;8.43;;;4.07;;
19836;SDS011;10079;55.740;37.662;2023-04-22T00:27:21;11.50;;;4.87;;
19836;SDS011;10079;55.740;37.662;2023-04-22T00:30:14;11.07;;;3.93;;
19836;SDS011;10079;55.740;37.662;2023-04-22T00:33:07;7.23;;;4.07;;
19836;SDS011;10079;55.740;37.662;2023-04-22T00:35:51;7.13;;;4.00;;
19836;SDS011;10079;55.740;37.662;2023-04-22T00:38:35;6.83;;;4.50;;
19836;SDS011;10079;55.740;37.662;2023-04-22T00:41:28;7.57;;;3.90;;
19836;SDS011;10079;55.740;37.662;2023-04-22T00:54:44;7.80;;;4.07;;
19836;SDS011;10079;55.740;37.662;2023-04-22T01:08:00;6.47;;;3.90;;
19836;SDS011;10079;55.740;37.662;2023-04-22T01:10:44;13.63;;;5.40;;
19836;SDS011;10079;55.740;37.662;2023-04-22T01:13:25;11.13;;;5.07;;
19836;SDS011;10079;55.740;37.662;2023-04-22T01:16:06;13.97;;;6.57;;
19836;SDS011;10079;55.740;37.662;2023-04-22T01:18:51;13.77;;;6.20;;
19836;SDS011;10079;55.740;37.662;2023-04-22T01:21:32;8.33;;;4.37;;
19836;SDS011;10079;55.740;37.662;2023-04-22T01:24:12;7.23;;;4.60;;
19836;SDS011;10079;55.740;37.662;2023-04-22T01:26:53;9.00;;;4.80;;
19836;SDS011;10079;55.740;37.662;2023-04-22T01:29:34;7.47;;;3.83;;
19836;SDS011;10079;55.740;37.662;2023-04-22T01:32:14;9.30;;;4.70;;
19836;SDS011;10079;55.740;37.662;2023-04-22T01:34:55;6.80;;;3.50;;
19836;SDS011;10079;55.740;37.662;2023-04-22T01:37:47;9.13;;;4.37;;
19836;SDS011;10079;55.740;37.662;2023-04-22T01:40:40;5.17;;;3.60;;
19836;SDS011;10079;55.740;37.662;2023-04-22T01:43:33;5.77;;;4.10;;
19836;SDS011;10079;55.740;37.662;2023-04-22T01:46:25;7.30;;;3.63;;
19836;SDS011;10079;55.740;37.662;2023-04-22T01:49:18;5.93;;;3.70;;
19836;SDS011;10079;55.740;37.662;2023-04-22T01:52:07;6.73;;;4.03;;
19836;SDS011;10079;55.740;37.662;2023-04-22T01:55:00;6.63;;;3.30;;
19836;SDS011;10079;55.740;37.662;2023-04-22T01:57:41;5.67;;;3.40;;
19836;SDS011;10079;55.740;37.662;2023-04-22T02:00:22;10.73;;;3.83;;
19836;SDS011;10079;55.740;37.662;2023-04-22T02:03:06;6.23;;;3.67;;
19836;SDS011;10079;55.740;37.662;2023-04-22T02:05:47;7.80;;;3.90;;
19836;SDS011;10079;55.740;37.662;2023-04-22T02:08:39;6.87;;;3.60;;
19836;SDS011;10079;55.740;37.662;2023-04-22T02:11:21;6.60;;;3.63;;
19836;SDS011;10079;55.740;37.662;2023-04-22T02:14:01;8.83;;;4.30;;
19836;SDS011;10079;55.740;37.662;2023-04-22T02:16:42;8.80;;;4.00;;
19836;SDS011;10079;55.740;37.662;2023-04-22T02:19:32;5.10;;;3.80;;
19836;SDS011;10079;55.740;37.662;2023-04-22T02:22:13;6.43;;;3.80;;
19836;SDS011;10079;55.740;37.662;2023-04-22T02:24:54;7.00;;;3.33;;
19836;SDS011;10079;55.740;37.662;2023-04-22T02:27:38;5.27;;;3.73;;
19836;SDS011;10079;55.740;37.662;2023-04-22T02:30:19;4.50;;;3.27;;
19836;SDS011;10079;55.740;37.662;2023-04-22T02:32:59;6.67;;;3.37;;
19836;SDS011;10079;55.740;37.662;2023-04-22T02:35:40;5.70;;;3.03;;
19836;SDS011;10079;55.740;37.662;2023-04-22T02:38:25;4.77;;;3.43;;
19836;SDS011;10079;55.740;37.662;2023-04-22T02:41:09;5.80;;;2.80;;
19836;SDS011;10079;55.740;37.662;2023-04-22T02:44:01;6.60;;;3.30;;
19836;SDS011;10079;55.740;37.662;2023-04-22T02:46:54;6.57;;;3.43;;
19836;SDS011;10079;55.740;37.662;2023-04-22T03:00:06;7.87;;;3.67;;
19836;SDS011;10079;55.740;37.662;2023-04-22T03:02:48;4.03;;;3.50;;
19836;SDS011;10079;55.740;37.662;2023-04-22T03:05:32;5.50;;;4.07;;
19836;SDS011;10079;55.740;37.662;2023-04-22T03:08:24;4.43;;;3.50;;
19836;SDS011;10079;55.740;37.662;2023-04-22T03:11:08;9.60;;;3.60;;
19836;SDS011;10079;55.740;37.662;2023-04-22T03:14:02;7.40;;;3.87;;
19836;SDS011;10079;55.740;37.662;2023-04-22T03:16:55;6.10;;;3.10;;
19836;SDS011;10079;55.740;37.662;2023-04-22T03:19:39;5.83;;;3.00;;
19836;SDS011;10079;55.740;37.662;2023-04-22T03:22:20;7.70;;;3.47;;
19836;SDS011;10079;55.740;37.662;2023-04-22T03:25:00;7.47;;;3.20;;
19836;SDS011;10079;55.740;37.662;2023-04-22T03:27:53;6.63;;;3.37;;
19836;SDS011;10079;55.740;37.662;2023-04-22T03:30:45;6.53;;;3.00;;
19836;SDS011;10079;55.740;37.662;2023-04-22T03:33:27;7.73;;;3.17;;
19836;SDS011;10079;55.740;37.662;2023-04-22T03:36:07;7.10;;;4.13;;
19836;SDS011;10079;55.740;37.662;2023-04-22T03:39:00;8.33;;;4.97;;
19836;SDS011;10079;55.740;37.662;2023-04-22T03:41:44;9.60;;;3.90;;
19836;SDS011;10079;55.740;37.662;2023-04-22T03:55:07;6.13;;;3.93;;
19836;SDS011;10079;55.740;37.662;2023-04-22T04:08:20;6.40;;;3.23;;
19836;SDS011;10079;55.740;37.662;2023-04-22T04:11:01;7.60;;;4.10;;
19836;SDS011;10079;55.740;37.662;2023-04-22T04:13:42;5.13;;;3.77;;
19836;SDS011;10079;55.740;37.662;2023-04-22T04:16:27;5.33;;;3.43;;
19836;SDS011;10079;55.740;37.662;2023-04-22T04:19:11;8.13;;;3.50;;
19836;SDS011;10079;55.740;37.662;2023-04-22T04:21:55;6.87;;;3.63;;
19836;SDS011;10079;55.740;37.662;2023-04-22T04:24:39;6.57;;;3.30;;
19836;SDS011;10079;55.740;37.662;2023-04-22T04:27:32;5.50;;;3.87;;
19836;SDS011;10079;55.740;37.662;2023-04-22T04:30:14;6.77;;;3.47;;
19836;SDS011;10079;55.740;37.662;2023-04-22T04:32:55;7.63;;;3.53;;
19836;SDS011;10079;55.740;37.662;2023-04-22T04:35:48;8.10;;;3.63;;
19836;SDS011;10079;55.740;37.662;2023-04-22T04:38:28;7.07;;;3.83;;
19836;SDS011;10079;55.740;37.662;2023-04-22T04:41:16;6.83;;;3.60;;
19836;SDS011;10079;55.740;37.662;2023-04-22T04:44:08;5.63;;;3.80;;
19836;SDS011;10079;55.740;37.662;2023-04-22T04:46:49;5.43;;;3.30;;
19836;SDS011;10079;55.740;37.662;2023-04-22T04:49:33;7.03;;;3.20;;
19836;SDS011;10079;55.740;37.662;2023-04-22T04:52:14;6.67;;;3.73;;
19836;SDS011;10079;55.740;37.662;2023-04-22T04:54:58;6.85;;;3.50;;
19836;SDS011;10079;55.740;37.662;2023-04-22T04:57:38;7.47;;;4.10;;
19836;SDS011;10079;55.740;37.662;2023-04-22T05:00:20;8.35;;;3.42;;
19836;SDS011;10079;55.740;37.662;2023-04-22T05:03:12;4.32;;;3.37;;
19836;SDS011;10079;55.740;37.662;2023-04-22T05:06:02;6.97;;;4.10;;
19836;SDS011;10079;55.740;37.662;2023-04-22T05:08:43;4.18;;;3.22;;
19836;SDS011;10079;55.740;37.662;2023-04-22T05:11:24;4.50;;;3.08;;
19836;SDS011;10079;55.740;37.662;2023-04-22T05:14:06;4.80;;;3.20;;
19836;SDS011;10079;55.740;37.662;2023-04-22T05:16:46;5.97;;;3.37;;
19836;SDS011;10079;55.740;37.662;2023-04-22T05:19:27;5.60;;;2.80;;
19836;SDS011;10079;55.740;37.662;2023-04-22T05:22:08;9.32;;;2.95;;
19836;SDS011;10079;55.740;37.662;2023-04-22T05:25:01;8.18;;;3.20;;
19836;SDS011;10079;55.740;37.662;2023-04-22T05:27:41;6.18;;;3.30;;
19836;SDS011;10079;55.740;37.662;2023-04-22T05:30:22;3.95;;;2.90;;
19836;SDS011;10079;55.740;37.662;2023-04-22T05:33:02;6.32;;;3.67;;
19836;SDS011;10079;55.740;37.662;2023-04-22T05:35:43;5.82;;;3.08;;
19836;SDS011;10079;55.740;37.662;2023-04-22T05:38:27;10.88;;;4.43;;
19836;SDS011;10079;55.740;37.662;2023-04-22T05:41:11;7.12;;;3.22;;
19836;SDS011;10079;55.740;37.662;2023-04-22T05:44:04;9.02;;;2.90;;
19836;SDS011;10079;55.740;37.662;2023-04-22T05:46:48;6.47;;;2.72;;
19836;SDS011;10079;55.740;37.662;2023-04-22T05:49:37;1.92;;;1.58;;
19836;SDS011;10079;55.740;37.662;2023-04-22T05:55:20;5.22;;;2.50;;
19836;SDS011;10079;55.740;37.662;2023-04-22T05:58:05;2.33;;;1.90;;
19836;SDS011;10079;55.740;37.662;2023-04-22T06:00:54;4.03;;;2.33;;
19836;SDS011;10079;55.740;37.662;2023-04-22T06:03:43;5.15;;;2.40;;
19836;SDS011;10079;55.740;37.662;2023-04-22T06:06:24;6.03;;;2.50;;
19836;SDS011;10079;55.740;37.662;2023-04-22T06:09:05;5.95;;;2.60;;
19836;SDS011;10079;55.740;37.662;2023-04-22T06:11:46;3.50;;;1.90;;
19836;SDS011;10079;55.740;37.662;2023-04-22T06:14:38;4.85;;;1.80;;
19836;SDS011;10079;55.740;37.662;2023-04-22T06:27:56;1.55;;;1.25;;
19836;SDS011;10079;55.740;37.662;2023-04-22T06:30:36;2.33;;;1.35;;
19836;SDS011;10079;55.740;37.662;2023-04-22T06:33:20;3.05;;;1.50;;
19836;SDS011;10079;55.740;37.662;2023-04-22T06:36:05;2.35;;;1.10;;
19836;SDS011;10079;55.740;37.662;2023-04-22T06:38:46;1.62;;;1.20;;
19836;SDS011;10079;55.740;37.662;2023-04-22T06:41:31;2.92;;;1.17;;
19836;SDS011;10079;55.740;37.662;2023-04-22T06:44:11;5.78;;;1.48;;
19836;SDS011;10079;55.740;37.662;2023-04-22T06:57:22;3.65;;;1.40;;
19836;SDS011;10079;55.740;37.662;2023-04-22T07:00:04;3.40;;;1.85;;
19836;SDS011;10079;55.740;37.662;2023-04-22T07:02:45;2.92;;;1.50;;
19836;SDS011;10079;55.740;37.662;2023-04-22T07:05:29;4.87;;;2.45;;
19836;SDS011;10079;55.740;37.662;2023-04-22T07:08:10;5.87;;;3.12;;
19836;SDS011;10079;55.740;37.662;2023-04-22T07:13:48;3.83;;;1.50;;
19836;SDS011;10079;55.740;37.662;2023-04-22T07:16:32;4.05;;;2.20;;
19836;SDS011;10079;55.740;37.662;2023-04-22T07:19:13;3.15;;;1.62;;
19836;SDS011;10079;55.740;37.662;2023-04-22T07:21:57;2.22;;;1.40;;
19836;SDS011;10079;55.740;37.662;2023-04-22T07:24:38;4.25;;;1.52;;
19836;SDS011;10079;55.740;37.662;2023-04-22T07:27:19;2.70;;;1.40;;
19836;SDS011;10079;55.740;37.662;2023-04-22T07:30:00;2.57;;;1.50;;
19836;SDS011;10079;55.740;37.662;2023-04-22T07:32:44;3.60;;;1.50;;
19836;SDS011;10079;55.740;37.662;2023-04-22T07:35:37;3.27;;;1.00;;
19836;SDS011;10079;55.740;37.662;2023-04-22T07:38:18;3.57;;;1.50;;
19836;SDS011;10079;55.740;37.662;2023-04-22T07:40:58;1.90;;;1.10;;
19836;SDS011;10079;55.740;37.662;2023-04-22T07:43:39;2.07;;;1.10;;
19836;SDS011;10079;55.740;37.662;2023-04-22T07:46:20;2.43;;;1.37;;
19836;SDS011;10079;55.740;37.662;2023-04-22T07:49:01;4.80;;;1.50;;
19836;SDS011;10079;55.740;37.662;2023-04-22T07:51:42;3.87;;;1.10;;
19836;SDS011;10079;55.740;37.662;2023-04-22T07:54:25;1.97;;;1.20;;
19836;SDS011;10079;55.740;37.662;2023-04-22T07:57:06;2.93;;;1.17;;
19836;SDS011;10079;55.740;37.662;2023-04-22T07:59:48;3.28;;;1.17;;
19836;SDS011;10079;55.740;37.662;2023-04-22T08:02:28;2.25;;;1.10;;
19836;SDS011;10079;55.740;37.662;2023-04-22T08:05:15;2.87;;;1.00;;
19836;SDS011;10079;55.740;37.662;2023-04-22T08:07:58;2.10;;;1.10;;
19836;SDS011;10079;55.740;37.662;2023-04-22T08:10:39;2.17;;;1.23;;
19836;SDS011;10079;55.740;37.662;2023-04-22T08:13:32;1.67;;;1.10;;
19836;SDS011;10079;55.740;37.662;2023-04-22T08:26:49;2.70;;;1.40;;
19836;SDS011;10079;55.740;37.662;2023-04-22T08:29:30;1.67;;;1.20;;
19836;SDS011;10079;55.740;37.662;2023-04-22T08:32:11;3.47;;;1.30;;
19836;SDS011;10079;55.740;37.662;2023-04-22T08:34:53;1.53;;;1.20;;
19836;SDS011;10079;55.740;37.662;2023-04-22T08:37:37;1.20;;;1.07;;
19836;SDS011;10079;55.740;37.662;2023-04-22T08:40:19;4.00;;;1.43;;
19836;SDS011;10079;55.740;37.662;2023-04-22T08:43:03;3.13;;;1.40;;
19836;SDS011;10079;55.740;37.662;2023-04-22T08:56:24;3.53;;;1.40;;
19836;SDS011;10079;55.740;37.662;2023-04-22T08:59:13;2.40;;;1.27;;
19836;SDS011;10079;55.740;37.662;2023-04-22T09:02:02;4.17;;;1.40;;
19836;SDS011;10079;55.740;37.662;2023-04-22T09:04:52;5.00;;;1.33;;
19836;SDS011;10079;55.740;37.662;2023-04-22T09:07:44;4.73;;;1.43;;
19836;SDS011;10079;55.740;37.662;2023-04-22T09:10:29;1.90;;;1.40;;
19836;SDS011;10079;55.740;37.662;2023-04-22T09:13:09;2.30;;;1.23;;
19836;SDS011;10079;55.740;37.662;2023-04-22T09:16:02;3.13;;;1.17;;
19836;SDS011;10079;55.740;37.662;2023-04-22T09:18:48;2.00;;;1.30;;
19836;SDS011;10079;55.740;37.662;2023-04-22T09:21:32;2.90;;;1.47;;
19836;SDS011;10079;55.740;37.662;2023-04-22T09:24:13;2.07;;;1.30;;
19836;SDS011;10079;55.740;37.662;2023-04-22T09:26:57;4.03;;;1.30;;
19836;SDS011;10079;55.740;37.662;2023-04-22T09:29:46;2.83;;;1.57;;
19836;SDS011;10079;55.740;37.662;2023-04-22T09:32:34;2.10;;;1.70;;
19836;SDS011;10079;55.740;37.662;2023-04-22T09:35:26;2.03;;;1.50;;
19836;SDS011;10079;55.740;37.662;2023-04-22T09:38:10;3.30;;;1.60;;
19836;SDS011;10079;55.740;37.662;2023-04-22T09:40:50;4.10;;;2.30;;
19836;SDS011;10079;55.740;37.662;2023-04-22T09:43:31;4.43;;;2.37;;
19836;SDS011;10079;55.740;37.662;2023-04-22T09:56:48;3.28;;;1.77;;
19836;SDS011;10079;55.740;37.662;2023-04-22T10:10:08;2.53;;;1.80;;
19836;SDS011;10079;55.740;37.662;2023-04-22T10:12:49;2.47;;;1.70;;
19836;SDS011;10079;55.740;37.662;2023-04-22T10:15:30;4.70;;;2.27;;
19836;SDS011;10079;55.740;37.662;2023-04-22T10:18:12;4.03;;;2.03;;
19836;SDS011;10079;55.740;37.662;2023-04-22T10:20:55;3.70;;;1.80;;
19836;SDS011;10079;55.740;37.662;2023-04-22T10:23:46;3.63;;;2.23;;
19836;SDS011;10079;55.740;37.662;2023-04-22T10:29:19;2.60;;;1.80;;
19836;SDS011;10079;55.740;37.662;2023-04-22T10:32:24;2.20;;;1.73;;
19836;SDS011;10079;55.740;37.662;2023-04-22T10:35:09;7.03;;;2.93;;
19836;SDS011;10079;55.740;37.662;2023-04-22T10:37:51;4.10;;;1.73;;
19836;SDS011;10079;55.740;37.662;2023-04-22T10:40:31;3.33;;;1.90;;
19836;SDS011;10079;55.740;37.662;2023-04-22T10:43:12;3.30;;;2.00;;
19836;SDS011;10079;55.740;37.662;2023-04-22T10:45:54;1.87;;;1.47;;
19836;SDS011;10079;55.740;37.662;2023-04-22T10:54:57;5.03;;;2.50;;
19836;SDS011;10079;55.740;37.662;2023-04-22T10:57:41;5.87;;;1.70;;
19836;SDS011;10079;55.740;37.662;2023-04-22T11:00:23;2.67;;;1.33;;
19836;SDS011;10079;55.740;37.662;2023-04-22T11:03:07;3.87;;;1.50;;
19836;SDS011;10079;55.740;37.662;2023-04-22T11:05:47;2.53;;;1.70;;
19836;SDS011;10079;55.740;37.662;2023-04-22T11:08:28;3.87;;;1.87;;
19836;SDS011;10079;55.740;37.662;2023-04-22T11:11:09;3.03;;;1.57;;
19836;SDS011;10079;55.740;37.662;2023-04-22T11:13:50;5.97;;;2.03;;
19836;SDS011;10079;55.740;37.662;2023-04-22T11:16:30;3.20;;;1.73;;
19836;SDS011;10079;55.740;37.662;2023-04-22T11:22:15;2.60;;;1.30;;
19836;SDS011;10079;55.740;37.662;2023-04-22T11:24:57;3.33;;;1.50;;
19836;SDS011;10079;55.740;37.662;2023-04-22T11:27:37;2.67;;;1.23;;
19836;SDS011;10079;55.740;37.662;2023-04-22T11:30:22;2.30;;;1.30;;
19836;SDS011;10079;55.740;37.662;2023-04-22T11:33:05;1.50;;;1.33;;
19836;SDS011;10079;55.740;37.662;2023-04-22T11:35:49;1.93;;;1.50;;
19836;SDS011;10079;55.740;37.662;2023-04-22T11:38:39;3.13;;;1.37;;
19836;SDS011;10079;55.740;37.662;2023-04-22T11:52:07;4.30;;;1.97;;
19836;SDS011;10079;55.740;37.662;2023-04-22T11:54:48;5.47;;;1.87;;
19836;SDS011;10079;55.740;37.662;2023-04-22T11:57:32;3.93;;;1.90;;
19836;SDS011;10079;55.740;37.662;2023-04-22T12:21:12;4.73;;;2.00;;
19836;SDS011;10079;55.740;37.662;2023-04-22T12:24:07;4.37;;;1.53;;
19836;SDS011;10079;55.740;37.662;2023-04-22T12:26:51;2.53;;;1.40;;
19836;SDS011;10079;55.740;37.662;2023-04-22T12:29:51;4.03;;;1.50;;
19836;SDS011;10079;55.740;37.662;2023-04-22T12:32:33;3.93;;;1.40;;
19836;SDS011;10079;55.740;37.662;2023-04-22T12:35:18;1.60;;;1.50;;
19836;SDS011;10079;55.740;37.662;2023-04-22T12:38:02;3.50;;;1.70;;
19836;SDS011;10079;55.740;37.662;2023-04-22T12:40:51;2.87;;;1.60;;
19836;SDS011;10079;55.740;37.662;2023-04-22T12:43:44;2.33;;;1.80;;
19836;SDS011;10079;55.740;37.662;2023-04-22T12:46:36;3.87;;;2.00;;
19836;SDS011;10079;55.740;37.662;2023-04-22T12:49:17;3.77;;;1.80;;
19836;SDS011;10079;55.740;37.662;2023-04-22T12:51:58;4.63;;;1.70;;
19836;SDS011;10079;55.740;37.662;2023-04-22T12:54:39;2.23;;;1.80;;
19836;SDS011;10079;55.740;37.662;2023-04-22T12:57:19;7.83;;;1.80;;
19836;SDS011;10079;55.740;37.662;2023-04-22T13:00:01;4.30;;;2.17;;
19836;SDS011;10079;55.740;37.662;2023-04-22T13:02:42;3.43;;;2.20;;
19836;SDS011;10079;55.740;37.662;2023-04-22T13:05:26;4.33;;;1.80;;
19836;SDS011;10079;55.740;37.662;2023-04-22T13:08:10;7.37;;;1.83;;
19836;SDS011;10079;55.740;37.662;2023-04-22T13:10:51;2.43;;;1.40;;
19836;SDS011;10079;55.740;37.662;2023-04-22T13:13:32;3.00;;;1.60;;
19836;SDS011;10079;55.740;37.662;2023-04-22T13:16:13;1.40;;;1.20;;
19836;SDS011;10079;55.740;37.662;2023-04-22T13:18:55;4.00;;;1.60;;
19836;SDS011;10079;55.740;37.662;2023-04-22T13:24:23;4.27;;;1.70;;
19836;SDS011;10079;55.740;37.662;2023-04-22T13:37:43;3.63;;;1.63;;
19836;SDS011;10079;55.740;37.662;2023-04-22T13:40:25;5.20;;;1.80;;
19836;SDS011;10079;55.740;37.662;2023-04-22T13:43:07;3.17;;;1.57;;
19836;SDS011;10079;55.740;37.662;2023-04-22T13:45:47;2.90;;;1.67;;
19836;SDS011;10079;55.740;37.662;2023-04-22T13:48:28;4.63;;;2.50;;
19836;SDS011;10079;55.740;37.662;2023-04-22T13:51:12;2.97;;;2.03;;
19836;SDS011;10079;55.740;37.662;2023-04-22T13:53:53;3.90;;;1.80;;
19836;SDS011;10079;55.740;37.662;2023-04-22T13:56:34;2.93;;;1.70;;
19836;SDS011;10079;55.740;37.662;2023-04-22T13:59:14;3.20;;;1.90;;
19836;SDS011;10079;55.740;37.662;2023-04-22T14:01:55;3.50;;;2.10;;
19836;SDS011;10079;55.740;37.662;2023-04-22T14:04:38;6.63;;;2.83;;
19836;SDS011;10079;55.740;37.662;2023-04-22T14:07:18;4.67;;;2.83;;
19836;SDS011;10079;55.740;37.662;2023-04-22T14:09:59;5.67;;;2.30;;
19836;SDS011;10079;55.740;37.662;2023-04-22T14:12:40;3.13;;;1.90;;
19836;SDS011;10079;55.740;37.662;2023-04-22T14:15:20;1.80;;;1.60;;
19836;SDS011;10079;55.740;37.662;2023-04-22T14:18:01;5.37;;;2.10;;
19836;SDS011;10079;55.740;37.662;2023-04-22T14:20:42;5.20;;;2.03;;
19836;SDS011;10079;55.740;37.662;2023-04-22T14:23:37;2.93;;;1.40;;
19836;SDS011;10079;55.740;37.662;2023-04-22T14:26:29;4.90;;;1.80;;
19836;SDS011;10079;55.740;37.662;2023-04-22T14:29:13;4.00;;;1.70;;
19836;SDS011;10079;55.740;37.662;2023-04-22T14:31:57;4.60;;;2.10;;
19836;SDS011;10079;55.740;37.662;2023-04-22T14:34:41;3.07;;;1.63;;
19836;SDS011;10079;55.740;37.662;2023-04-22T14:47:56;3.27;;;2.03;;
19836;SDS011;10079;55.740;37.662;2023-04-22T14:50:40;2.37;;;1.97;;
19836;SDS011;10079;55.740;37.662;2023-04-22T14:53:33;5.30;;;2.00;;
19836;SDS011;10079;55.740;37.662;2023-04-22T14:56:22;3.03;;;1.83;;
19836;SDS011;10079;55.740;37.662;2023-04-22T14:59:11;4.37;;;2.73;;
19836;SDS011;10079;55.740;37.662;2023-04-22T15:02:04;5.70;;;2.27;;
19836;SDS011;10079;55.740;37.662;2023-04-22T15:04:50;3.47;;;1.90;;
19836;SDS011;10079;55.740;37.662;2023-04-22T15:18:11;5.60;;;2.20;;
19836;SDS011;10079;55.740;37.662;2023-04-22T15:20:52;3.27;;;2.23;;
19836;SDS011;10079;55.740;37.662;2023-04-22T15:23:33;5.63;;;3.03;;
19836;SDS011;10079;55.740;37.662;2023-04-22T15:26:26;8.80;;;2.90;;
19836;SDS011;10079;55.740;37.662;2023-04-22T15:29:06;5.57;;;2.57;;
19836;SDS011;10079;55.740;37.662;2023-04-22T15:42:24;4.50;;;2.60;;
19836;SDS011;10079;55.740;37.662;2023-04-22T15:45:05;6.23;;;2.30;;
19836;SDS011;10079;55.740;37.662;2023-04-22T15:47:48;5.60;;;1.90;;
19836;SDS011;10079;55.740;37.662;2023-04-22T15:50:29;4.53;;;2.37;;
19836;SDS011;10079;55.740;37.662;2023-04-22T15:53:13;4.50;;;2.33;;
19836;SDS011;10079;55.740;37.662;2023-04-22T15:55:54;5.43;;;2.20;;
19836;SDS011;10079;55.740;37.662;2023-04-22T15:58:38;3.57;;;1.90;;
19836;SDS011;10079;55.740;37.662;2023-04-22T16:01:27;4.03;;;2.30;;
19836;SDS011;10079;55.740;37.662;2023-04-22T16:04:08;5.17;;;2.10;;
19836;SDS011;10079;55.740;37.662;2023-04-22T16:06:52;7.70;;;2.70;;
19836;SDS011;10079;55.740;37.662;2023-04-22T16:09:36;3.90;;;2.10;;
19836;SDS011;10079;55.740;37.662;2023-04-22T16:12:21;3.63;;;2.20;;
19836;SDS011;10079;55.740;37.662;2023-04-22T16:15:02;4.80;;;2.00;;
19836;SDS011;10079;55.740;37.662;2023-04-22T16:17:55;3.13;;;2.10;;
19836;SDS011;10079;55.740;37.662;2023-04-22T16:20:36;3.03;;;2.00;;
19836;SDS011;10079;55.740;37.662;2023-04-22T16:23:17;5.87;;;3.40;;
19836;SDS011;10079;55.740;37.662;2023-04-22T16:26:10;8.07;;;3.00;;
19836;SDS011;10079;55.740;37.662;2023-04-22T16:28:51;3.30;;;2.33;;
19836;SDS011;10079;55.740;37.662;2023-04-22T16:31:32;3.87;;;2.33;;
19836;SDS011;10079;55.740;37.662;2023-04-22T16:34:13;5.90;;;2.37;;
19836;SDS011;10079;55.740;37.662;2023-04-22T16:36:54;5.40;;;2.33;;
19836;SDS011;10079;55.740;37.662;2023-04-22T16:39:48;5.77;;;1.70;;
19836;SDS011;10079;55.740;37.662;2023-04-22T16:42:28;5.20;;;2.23;;
19836;SDS011;10079;55.740;37.662;2023-04-22T16:45:08;2.90;;;2.40;;
19836;SDS011;10079;55.740;37.662;2023-04-22T16:47:53;3.70;;;2.13;;
19836;SDS011;10079;55.740;37.662;2023-04-22T16:50:34;3.97;;;2.30;;
19836;SDS011;10079;55.740;37.662;2023-04-22T16:53:15;5.30;;;2.47;;
19836;SDS011;10079;55.740;37.662;2023-04-22T16:55:57;5.00;;;2.30;;
19836;SDS011;10079;55.740;37.662;2023-04-22T16:58:49;5.70;;;2.53;;
19836;SDS011;10079;55.740;37.662;2023-04-22T17:01:31;7.37;;;2.30;;
19836;SDS011;10079;55.740;37.662;2023-04-22T17:04:11;5.57;;;2.03;;
19836;SDS011;10079;55.740;37.662;2023-04-22T17:06:52;4.30;;;2.33;;
19836;SDS011;10079;55.740;37.662;2023-04-22T17:09:33;3.33;;;2.10;;
19836;SDS011;10079;55.740;37.662;2023-04-22T17:12:13;7.03;;;1.83;;
19836;SDS011;10079;55.740;37.662;2023-04-22T17:14:54;6.03;;;2.73;;
19836;SDS011;10079;55.740;37.662;2023-04-22T17:17:35;5.73;;;2.47;;
19836;SDS011;10079;55.740;37.662;2023-04-22T17:20:16;6.00;;;2.50;;
19836;SDS011;10079;55.740;37.662;2023-04-22T17:22:57;7.70;;;3.20;;
19836;SDS011;10079;55.740;37.662;2023-04-22T17:36:20;7.50;;;3.30;;
19836;SDS011;10079;55.740;37.662;2023-04-22T17:39:04;7.43;;;3.03;;
19836;SDS011;10079;55.740;37.662;2023-04-22T17:41:57;7.13;;;2.87;;
19836;SDS011;10079;55.740;37.662;2023-04-22T17:44:41;6.40;;;3.20;;
19836;SDS011;10079;55.740;37.662;2023-04-22T17:47:34;6.97;;;3.30;;
19836;SDS011;10079;55.740;37.662;2023-04-22T17:50:15;9.93;;;3.27;;
19836;SDS011;10079;55.740;37.662;2023-04-22T17:53:04;10.03;;;3.57;;
19836;SDS011;10079;55.740;37.662;2023-04-22T17:55:49;8.07;;;3.43;;
19836;SDS011;10079;55.740;37.662;2023-04-22T17:58:33;8.57;;;3.60;;
19836;SDS011;10079;55.740;37.662;2023-04-22T18:01:14;6.90;;;3.63;;
19836;SDS011;10079;55.740;37.662;2023-04-22T18:04:06;11.27;;;3.97;;
19836;SDS011;10079;55.740;37.662;2023-04-22T18:06:47;7.03;;;3.40;;
19836;SDS011;10079;55.740;37.662;2023-04-22T18:09:29;9.80;;;4.00;;
19836;SDS011;10079;55.740;37.662;2023-04-22T18:12:18;7.73;;;3.50;;
19836;SDS011;10079;55.740;37.662;2023-04-22T18:15:10;6.60;;;3.27;;
19836;SDS011;10079;55.740;37.662;2023-04-22T18:17:54;10.57;;;4.37;;
19836;SDS011;10079;55.740;37.662;2023-04-22T18:20:44;8.23;;;4.17;;
19836;SDS011;10079;55.740;37.662;2023-04-22T18:23:32;9.57;;;4.60;;
19836;SDS011;10079;55.740;37.662;2023-04-22T18:26:12;10.77;;;4.53;;
19836;SDS011;10079;55.740;37.662;2023-04-22T18:28:53;12.60;;;4.83;;
19836;SDS011;10079;55.740;37.662;2023-04-22T18:31:35;11.20;;;5.00;;
19836;SDS011;10079;55.740;37.662;2023-04-22T18:45:01;8.87;;;4.40;;
19836;SDS011;10079;55.740;37.662;2023-04-22T18:47:42;13.60;;;5.00;;
19836;SDS011;10079;55.740;37.662;2023-04-22T18:50:35;10.47;;;4.73;;
19836;SDS011;10079;55.740;37.662;2023-04-22T18:53:16;11.53;;;5.30;;
19836;SDS011;10079;55.740;37.662;2023-04-22T18:55:57;10.07;;;5.40;;
19836;SDS011;10079;55.740;37.662;2023-04-22T18:58:38;13.47;;;5.57;;
19836;SDS011;10079;55.740;37.662;2023-04-22T19:01:19;11.23;;;4.90;;
19836;SDS011;10079;55.740;37.662;2023-04-22T19:04:00;14.27;;;5.00;;
19836;SDS011;10079;55.740;37.662;2023-04-22T19:06:44;9.10;;;4.90;;
19836;SDS011;10079;55.740;37.662;2023-04-22T19:09:26;8.67;;;4.67;;
19836;SDS011;10079;55.740;37.662;2023-04-22T19:12:07;10.80;;;5.00;;
19836;SDS011;10079;55.740;37.662;2023-04-22T19:14:48;8.43;;;4.53;;
19836;SDS011;10079;55.740;37.662;2023-04-22T19:17:29;10.60;;;5.30;;
19836;SDS011;10079;55.740;37.662;2023-04-22T19:20:22;16.13;;;5.80;;
19836;SDS011;10079;55.740;37.662;2023-04-22T19:23:03;14.10;;;5.40;;
19836;SDS011;10079;55.740;37.662;2023-04-22T19:25:44;16.70;;;5.60;;
19836;SDS011;10079;55.740;37.662;2023-04-22T19:28:26;10.33;;;5.90;;
19836;SDS011;10079;55.740;37.662;2023-04-22T19:31:15;19.63;;;6.30;;
19836;SDS011;10079;55.740;37.662;2023-04-22T19:34:04;16.90;;;6.17;;
19836;SDS011;10079;55.740;37.662;2023-04-22T19:36:48;12.23;;;6.30;;
19836;SDS011;10079;55.740;37.662;2023-04-22T19:39:41;12.07;;;5.63;;
19836;SDS011;10079;55.740;37.662;2023-04-22T19:42:22;15.43;;;6.63;;
19836;SDS011;10079;55.740;37.662;2023-04-22T19:45:16;12.90;;;6.17;;
19836;SDS011;10079;55.740;37.662;2023-04-22T19:48:09;12.97;;;5.90;;
19836;SDS011;10079;55.740;37.662;2023-04-22T19:50:58;11.30;;;5.37;;
19836;SDS011;10079;55.740;37.662;2023-04-22T19:53:39;14.33;;;5.37;;
19836;SDS011;10079;55.740;37.662;2023-04-22T19:56:20;11.53;;;5.43;;
19836;SDS011;10079;55.740;37.662;2023-04-22T19:59:01;16.47;;;6.07;;
19836;SDS011;10079;55.740;37.662;2023-04-22T20:01:42;13.27;;;6.03;;
19836;SDS011;10079;55.740;37.662;2023-04-22T20:04:27;14.20;;;5.33;;
19836;SDS011;10079;55.740;37.662;2023-04-22T20:07:11;11.33;;;5.10;;